createdAt,value
2023-02-22T00:02:10.787Z,17.58
2023-02-22T00:04:39.897Z,17.23
2023-02-22T00:07:07.357Z,17.00
2023-02-22T00:09:34.246Z,16.83
2023-02-22T00:12:01.385Z,17.45
2023-02-22T00:14:28.614Z,18.42
2023-02-22T00:16:59.559Z,17.30
2023-02-22T00:19:28.194Z,17.35
2023-02-22T00:21:55.422Z,17.75
2023-02-22T00:24:24.832Z,17.40
2023-02-22T00:26:55.762Z,16.75
2023-02-22T00:29:24.497Z,16.50
2023-02-22T00:31:51.636Z,17.10
2023-02-22T00:34:18.559Z,17.08
2023-02-22T00:36:49.957Z,17.38
2023-02-22T00:39:17.078Z,18.52
2023-02-22T00:41:44.298Z,18.70
2023-02-22T00:44:11.842Z,17.80
2023-02-22T00:46:39.521Z,17.70
2023-02-22T00:49:06.685Z,17.75
2023-02-22T00:51:34.073Z,18.77
2023-02-22T00:54:01.207Z,18.77
2023-02-22T00:56:28.756Z,18.60
2023-02-22T00:58:56.100Z,18.45
2023-02-22T01:01:24.200Z,18.13
2023-02-22T01:03:51.445Z,18.95
2023-02-22T01:06:18.783Z,18.08
2023-02-22T01:08:47.534Z,17.98
2023-02-22T01:11:16.339Z,19.45
2023-02-22T01:13:45.382Z,18.50
2023-02-22T01:16:12.466Z,20.30
2023-02-22T01:18:39.564Z,19.67
2023-02-22T01:21:06.845Z,21.38
2023-02-22T01:23:35.655Z,21.65
2023-02-22T01:26:06.076Z,20.92
2023-02-22T01:28:34.088Z,21.05
2023-02-22T01:31:03.293Z,19.88
2023-02-22T01:33:30.563Z,20.88
2023-02-22T01:35:57.870Z,19.63
2023-02-22T01:38:24.773Z,19.10
2023-02-22T01:40:52.181Z,18.45
2023-02-22T01:43:24.107Z,19.00
2023-02-22T01:45:59.756Z,19.38
2023-02-22T01:48:29.992Z,18.98
2023-02-22T01:51:10.834Z,19.20
2023-02-22T01:54:01.094Z,19.92
2023-02-22T01:56:31.172Z,19.15
2023-02-22T01:59:08.654Z,19.45
2023-02-22T02:01:38.070Z,19.77
2023-02-22T02:04:10.163Z,19.55
2023-02-22T02:06:38.408Z,19.45
2023-02-22T02:09:30.336Z,18.17
2023-02-22T02:12:05.092Z,19.00
2023-02-22T02:14:32.773Z,18.83
2023-02-22T02:17:03.889Z,20.02
2023-02-22T02:19:49.646Z,19.23
2023-02-22T02:22:19.350Z,18.70
2023-02-22T02:25:18.214Z,19.77
2023-02-22T02:28:09.652Z,19.35
2023-02-22T02:31:07.917Z,20.00
2023-02-22T02:33:56.580Z,20.73
2023-02-22T02:36:53.153Z,21.05
2023-02-22T02:39:49.361Z,20.38
2023-02-22T02:42:22.339Z,20.50
2023-02-22T02:44:56.510Z,21.60
2023-02-22T02:47:37.801Z,21.88
2023-02-22T02:50:14.404Z,21.92
2023-02-22T02:52:42.088Z,20.75
2023-02-22T02:55:11.407Z,19.75
2023-02-22T02:57:41.561Z,20.75
2023-02-22T03:00:24.725Z,19.75
2023-02-22T03:03:10.510Z,19.63
2023-02-22T03:05:52.615Z,19.13
2023-02-22T03:08:32.030Z,18.92
2023-02-22T03:11:05.064Z,20.48
2023-02-22T03:27:54.528Z,20.02
2023-02-22T03:30:46.847Z,20.50
2023-02-22T03:33:23.680Z,19.90
2023-02-22T03:35:57.103Z,19.83
2023-02-22T03:38:29.005Z,20.98
2023-02-22T03:41:00.353Z,19.70
2023-02-22T03:43:34.513Z,20.05
2023-02-22T03:46:06.203Z,20.25
2023-02-22T03:48:39.910Z,20.38
2023-02-22T03:51:07.936Z,20.00
2023-02-22T03:53:37.283Z,19.95
2023-02-22T03:56:10.563Z,19.00
2023-02-22T03:58:40.490Z,20.13
2023-02-22T04:01:07.484Z,19.63
2023-02-22T04:03:34.402Z,20.25
2023-02-22T04:06:01.892Z,18.65
2023-02-22T04:08:30.441Z,19.52
2023-02-22T04:10:57.305Z,20.15
2023-02-22T04:13:27.614Z,18.50
2023-02-22T04:15:55.114Z,19.27
2023-02-22T04:18:22.637Z,18.67
2023-02-22T04:20:51.131Z,18.65
2023-02-22T04:23:29.586Z,18.70
2023-02-22T04:25:58.247Z,19.30
2023-02-22T04:28:25.309Z,19.23
2023-02-22T04:31:06.297Z,19.08
2023-02-22T04:33:33.336Z,18.40
2023-02-22T04:36:00.308Z,18.30
2023-02-22T04:38:30.960Z,18.98
2023-02-22T04:40:59.496Z,19.42
2023-02-22T04:43:27.361Z,20.05
2023-02-22T04:46:02.073Z,18.95
2023-02-22T04:48:29.208Z,19.90
2023-02-22T04:50:56.955Z,20.25
2023-02-22T04:53:24.880Z,19.65
2023-02-22T04:55:52.549Z,20.45
2023-02-22T04:58:19.553Z,20.85
2023-02-22T05:00:48.144Z,20.20
2023-02-22T05:03:15.644Z,21.00
2023-02-22T05:05:42.555Z,21.02
2023-02-22T05:08:09.614Z,19.50
2023-02-22T05:10:36.494Z,20.58
2023-02-22T05:13:04.264Z,20.70
2023-02-22T05:15:31.157Z,20.13
2023-02-22T05:17:58.066Z,20.17
2023-02-22T05:20:28.980Z,20.63
2023-02-22T05:22:57.338Z,19.85
2023-02-22T05:25:25.049Z,20.85
2023-02-22T05:27:53.961Z,22.15
2023-02-22T05:30:24.418Z,21.67
2023-02-22T05:32:52.704Z,19.40
2023-02-22T05:35:21.584Z,22.20
2023-02-22T05:37:48.452Z,22.00
2023-02-22T05:40:19.054Z,22.08
2023-02-22T05:42:48.736Z,20.92
2023-02-22T05:45:18.650Z,22.48
2023-02-22T05:47:46.102Z,23.05
2023-02-22T05:50:14.190Z,23.48
2023-02-22T05:52:41.452Z,24.20
2023-02-22T05:55:10.742Z,22.27
2023-02-22T05:57:37.769Z,23.70
2023-02-22T06:00:10.134Z,23.48
2023-02-22T06:02:39.883Z,25.42
2023-02-22T06:05:07.274Z,24.25
2023-02-22T06:07:34.100Z,25.05
2023-02-22T06:10:00.952Z,24.83
2023-02-22T06:12:27.944Z,24.08
2023-02-22T06:14:54.832Z,24.05
2023-02-22T06:17:21.829Z,24.92
2023-02-22T06:19:48.668Z,31.35
2023-02-22T06:22:19.753Z,26.63
2023-02-22T06:24:46.787Z,23.95
2023-02-22T06:27:13.814Z,23.20
2023-02-22T06:29:46.084Z,27.05
2023-02-22T06:32:14.015Z,29.23
2023-02-22T06:34:43.777Z,25.05
2023-02-22T06:37:10.661Z,24.92
2023-02-22T06:39:37.604Z,25.77
2023-02-22T06:42:04.608Z,25.27
2023-02-22T06:44:31.478Z,24.38
2023-02-22T06:46:59.746Z,22.55
2023-02-22T06:49:30.481Z,23.27
2023-02-22T06:51:57.359Z,24.63
2023-02-22T06:54:24.481Z,23.95
2023-02-22T06:56:51.304Z,23.88
2023-02-22T06:59:18.337Z,22.42
2023-02-22T07:01:45.193Z,24.13
2023-02-22T07:04:12.056Z,24.25
2023-02-22T07:06:38.922Z,22.02
2023-02-22T07:09:05.772Z,21.48
2023-02-22T07:11:32.817Z,27.83
2023-02-22T07:13:59.586Z,23.63
2023-02-22T07:16:26.549Z,23.15
2023-02-22T07:18:53.388Z,23.30
2023-02-22T07:21:20.394Z,22.45
2023-02-22T07:23:52.284Z,23.40
2023-02-22T07:26:19.979Z,24.92
2023-02-22T07:28:47.123Z,21.50
2023-02-22T07:31:14.057Z,23.60
2023-02-22T07:33:41.162Z,21.92
2023-02-22T07:36:08.548Z,24.48
2023-02-22T07:38:35.487Z,24.60
2023-02-22T07:41:02.452Z,23.00
2023-02-22T07:43:31.214Z,23.92
2023-02-22T07:46:00.546Z,21.15
2023-02-22T07:48:29.389Z,21.83
2023-02-22T07:50:57.517Z,22.60
2023-02-22T07:53:32.582Z,21.42
2023-02-22T07:56:01.452Z,22.33
2023-02-22T07:58:30.220Z,21.85
2023-02-22T08:00:59.096Z,28.20
2023-02-22T08:03:26.836Z,24.52
2023-02-22T08:05:56.301Z,20.73
2023-02-22T08:08:23.584Z,21.45
2023-02-22T08:10:51.733Z,20.52
2023-02-22T08:13:19.519Z,21.55
2023-02-22T08:15:49.576Z,20.90
2023-02-22T08:18:19.154Z,22.05
2023-02-22T08:20:48.429Z,21.38
2023-02-22T08:23:17.307Z,20.10
2023-02-22T08:25:44.599Z,20.02
2023-02-22T08:28:14.115Z,20.40
2023-02-22T08:30:43.472Z,19.15
2023-02-22T08:33:14.642Z,20.00
2023-02-22T08:35:42.008Z,20.55
2023-02-22T08:38:16.841Z,20.75
2023-02-22T08:40:43.715Z,21.77
2023-02-22T08:43:10.646Z,21.95
2023-02-22T08:45:37.550Z,21.23
2023-02-22T08:48:04.770Z,20.95
2023-02-22T08:50:35.896Z,22.02
2023-02-22T08:53:04.987Z,20.58
2023-02-22T08:55:35.079Z,21.40
2023-02-22T08:58:03.849Z,20.40
2023-02-22T09:00:33.263Z,23.80
2023-02-22T09:03:04.390Z,21.35
2023-02-22T09:05:32.063Z,20.75
2023-02-22T09:07:59.429Z,20.48
2023-02-22T09:10:30.630Z,19.38
2023-02-22T09:12:58.151Z,19.35
2023-02-22T09:15:25.746Z,20.58
2023-02-22T09:17:53.628Z,40.25
2023-02-22T09:20:22.292Z,20.52
2023-02-22T09:22:49.931Z,19.77
2023-02-22T09:25:18.156Z,20.35
2023-02-22T09:27:48.058Z,19.20
2023-02-22T09:30:32.514Z,19.33
2023-02-22T09:33:03.938Z,20.95
2023-02-22T09:35:31.117Z,20.67
2023-02-22T09:38:00.640Z,20.20
2023-02-22T09:40:31.077Z,22.05
2023-02-22T09:43:23.927Z,19.80
2023-02-22T09:46:13.777Z,20.65
2023-02-22T09:49:09.807Z,20.13
2023-02-22T09:51:50.680Z,20.40
2023-02-22T09:54:27.173Z,22.08
2023-02-22T09:56:58.400Z,20.60
2023-02-22T09:59:33.938Z,19.40
2023-02-22T10:02:31.654Z,19.85
2023-02-22T10:05:20.263Z,19.90
2023-02-22T10:07:53.819Z,20.33
2023-02-22T10:10:24.627Z,20.83
2023-02-22T10:13:30.836Z,22.15
2023-02-22T10:16:14.452Z,20.90
2023-02-22T10:19:08.439Z,20.60
2023-02-22T10:21:54.191Z,20.58
2023-02-22T10:24:40.256Z,20.35
2023-02-22T10:27:16.138Z,20.40
2023-02-22T10:29:49.432Z,20.73
2023-02-22T10:32:31.718Z,20.83
2023-02-22T10:35:00.934Z,20.73
2023-02-22T10:37:31.014Z,20.92
2023-02-22T10:40:20.559Z,21.83
2023-02-22T10:42:47.661Z,20.58
2023-02-22T10:45:19.645Z,22.42
2023-02-22T10:47:47.382Z,22.27
2023-02-22T10:50:15.895Z,21.88
2023-02-22T10:52:42.720Z,21.50
2023-02-22T10:55:15.846Z,22.00
2023-02-22T10:57:47.552Z,22.05
2023-02-22T11:00:19.996Z,22.50
2023-02-22T11:02:53.958Z,22.42
2023-02-22T11:08:32.294Z,22.98
2023-02-22T11:11:20.517Z,23.48
2023-02-22T11:13:57.787Z,22.88
2023-02-22T11:16:34.147Z,23.00
2023-02-22T11:19:16.989Z,22.90
2023-02-22T11:21:44.754Z,21.23
2023-02-22T11:24:14.349Z,22.63
2023-02-22T11:26:52.157Z,22.10
2023-02-22T11:29:24.757Z,22.88
2023-02-22T11:31:52.809Z,21.40
2023-02-22T11:34:38.406Z,21.38
2023-02-22T11:37:31.751Z,20.92
2023-02-22T11:40:22.343Z,20.50
2023-02-22T11:43:06.129Z,20.70
2023-02-22T11:45:33.122Z,19.65
2023-02-22T11:48:02.784Z,19.90
2023-02-22T11:50:57.473Z,19.13
2023-02-22T11:53:44.863Z,20.10
2023-02-22T11:56:37.755Z,19.08
2023-02-22T11:59:38.870Z,17.48
2023-02-22T12:02:51.924Z,17.35
2023-02-22T12:06:11.695Z,17.52
2023-02-22T12:09:04.449Z,17.83
2023-02-22T12:12:08.196Z,17.90
2023-02-22T12:14:48.756Z,18.55
2023-02-22T12:17:59.506Z,17.83
2023-02-22T12:20:40.909Z,17.15
2023-02-22T12:23:19.820Z,16.83
2023-02-22T12:26:11.490Z,17.67
2023-02-22T12:28:44.361Z,16.77
2023-02-22T12:31:25.838Z,17.25
2023-02-22T12:34:09.712Z,17.63
2023-02-22T12:36:50.536Z,17.23
2023-02-22T12:39:52.323Z,17.20
2023-02-22T12:42:31.807Z,42.45
2023-02-22T12:45:08.374Z,18.80
2023-02-22T12:47:49.641Z,16.88
2023-02-22T12:50:28.639Z,17.40
2023-02-22T12:53:01.448Z,17.67
2023-02-22T12:55:47.452Z,16.50
2023-02-22T12:58:31.385Z,17.58
2023-02-22T13:01:05.769Z,17.30
2023-02-22T13:03:39.583Z,16.77
2023-02-22T13:06:28.327Z,18.73
2023-02-22T13:09:13.522Z,18.55
2023-02-22T13:12:06.691Z,19.05
2023-02-22T13:14:48.451Z,16.40
2023-02-22T13:17:24.331Z,18.23
2023-02-22T13:20:18.442Z,17.13
2023-02-22T13:22:54.228Z,17.67
2023-02-22T13:25:30.495Z,16.67
2023-02-22T13:28:02.747Z,17.90
2023-02-22T13:30:48.595Z,17.27
2023-02-22T13:33:46.343Z,16.52
2023-02-22T13:36:16.998Z,19.15
2023-02-22T13:38:44.111Z,19.42
2023-02-22T13:41:39.599Z,17.85
2023-02-22T13:44:15.472Z,17.90
2023-02-22T13:47:14.497Z,18.60
2023-02-22T13:49:50.611Z,18.92
2023-02-22T13:52:24.067Z,17.45
2023-02-22T13:54:56.367Z,17.50
2023-02-22T13:57:48.343Z,17.88
2023-02-22T14:00:15.784Z,16.38
2023-02-22T14:03:03.719Z,17.70
2023-02-22T14:05:39.786Z,16.88
2023-02-22T14:08:31.318Z,17.50
2023-02-22T14:11:01.642Z,17.35
2023-02-22T14:13:30.939Z,17.00
2023-02-22T14:16:00.785Z,17.38
2023-02-22T14:18:29.893Z,18.05
2023-02-22T14:21:21.116Z,17.33
2023-02-22T14:23:53.148Z,17.95
2023-02-22T14:26:28.001Z,18.73
2023-02-22T14:29:07.625Z,16.98
2023-02-22T14:31:38.119Z,17.77
2023-02-22T14:34:09.639Z,16.90
2023-02-22T14:36:54.689Z,18.65
2023-02-22T14:39:46.159Z,17.38
2023-02-22T14:42:28.759Z,17.35
2023-02-22T14:45:09.599Z,17.35
2023-02-22T14:47:44.043Z,17.15
2023-02-22T14:50:23.337Z,17.00
2023-02-22T14:53:15.358Z,17.58
2023-02-22T14:55:57.767Z,18.80
2023-02-22T14:58:33.763Z,17.55
2023-02-22T15:01:49.109Z,17.48
2023-02-22T15:04:33.996Z,16.50
2023-02-22T15:07:08.027Z,16.88
2023-02-22T15:09:37.717Z,17.27
2023-02-22T15:12:04.805Z,16.65
2023-02-22T15:29:45.131Z,17.50
2023-02-22T15:32:21.171Z,17.27
2023-02-22T15:34:48.192Z,17.40
2023-02-22T15:37:25.653Z,18.27
2023-02-22T15:39:59.512Z,16.88
2023-02-22T15:42:29.717Z,17.67
2023-02-22T15:44:56.992Z,18.38
2023-02-22T15:47:40.160Z,17.27
2023-02-22T15:50:15.796Z,17.98
2023-02-22T15:53:23.320Z,18.65
2023-02-22T15:55:57.594Z,17.50
2023-02-22T15:58:28.897Z,21.30
2023-02-22T16:01:08.077Z,16.35
2023-02-22T16:03:45.039Z,16.80
2023-02-22T16:06:19.990Z,16.35
2023-02-22T16:08:55.441Z,18.20
2023-02-22T16:11:43.477Z,16.25
2023-02-22T16:14:39.283Z,16.75
2023-02-22T16:17:14.160Z,17.73
2023-02-22T16:19:44.970Z,16.58
2023-02-22T16:22:34.040Z,16.48
2023-02-22T16:25:19.304Z,17.30
2023-02-22T16:27:47.799Z,16.13
2023-02-22T16:30:27.468Z,17.00
2023-02-22T16:32:56.633Z,16.40
2023-02-22T16:35:29.031Z,16.50
2023-02-22T16:38:05.097Z,19.00
2023-02-22T16:40:47.195Z,17.25
2023-02-22T16:43:17.578Z,15.57
2023-02-22T16:45:46.428Z,15.90
2023-02-22T16:48:16.853Z,15.55
2023-02-22T16:50:43.929Z,16.40
2023-02-22T16:53:11.196Z,17.48
2023-02-22T16:55:37.973Z,16.13
2023-02-22T16:58:05.677Z,16.60
2023-02-22T17:00:32.546Z,14.85
2023-02-22T17:03:04.106Z,16.65
2023-02-22T17:05:37.883Z,18.52
2023-02-22T17:08:05.009Z,15.93
2023-02-22T17:10:32.497Z,16.15
2023-02-22T17:13:07.235Z,14.85
2023-02-22T17:15:39.713Z,15.07
2023-02-22T17:18:16.369Z,14.80
2023-02-22T17:20:45.144Z,15.20
2023-02-22T17:23:12.497Z,14.63
2023-02-22T17:25:41.242Z,14.50
2023-02-22T17:28:08.793Z,14.95
2023-02-22T17:30:36.579Z,15.25
2023-02-22T17:33:07.162Z,13.77
2023-02-22T17:35:37.303Z,14.88
2023-02-22T17:38:06.381Z,15.57
2023-02-22T17:40:35.009Z,14.70
2023-02-22T17:43:02.020Z,16.75
2023-02-22T17:45:29.548Z,14.18
2023-02-22T17:47:59.139Z,14.18
2023-02-22T17:50:27.232Z,16.13
2023-02-22T17:52:54.346Z,34.15
2023-02-22T17:55:22.482Z,16.60
2023-02-22T17:57:58.359Z,16.45
2023-02-22T18:00:33.210Z,16.50
2023-02-22T18:03:09.459Z,16.13
2023-02-22T18:05:41.837Z,17.73
2023-02-22T18:08:08.774Z,15.82
2023-02-22T18:10:35.977Z,25.65
2023-02-22T18:13:04.179Z,16.70
2023-02-22T18:15:35.670Z,14.93
2023-02-22T18:18:05.387Z,14.88
2023-02-22T18:20:38.433Z,13.88
2023-02-22T18:23:12.640Z,14.20
2023-02-22T18:25:40.514Z,14.13
2023-02-22T18:28:08.295Z,15.20
2023-02-22T18:30:38.247Z,14.10
2023-02-22T18:33:05.244Z,16.60
2023-02-22T18:35:32.151Z,15.27
2023-02-22T18:37:59.014Z,16.60
2023-02-22T18:40:26.069Z,17.20
2023-02-22T18:42:52.860Z,14.38
2023-02-22T18:45:21.167Z,15.40
2023-02-22T18:47:48.281Z,14.40
2023-02-22T18:50:18.554Z,16.60
2023-02-22T18:52:45.981Z,15.85
2023-02-22T18:55:17.780Z,14.73
2023-02-22T18:57:45.949Z,17.45
2023-02-22T19:00:16.667Z,16.25
2023-02-22T19:02:43.730Z,14.68
2023-02-22T19:05:12.271Z,17.02
2023-02-22T19:07:39.427Z,15.73
2023-02-22T19:10:07.210Z,14.35
2023-02-22T19:12:34.212Z,13.88
2023-02-22T19:15:01.787Z,12.93
2023-02-22T19:17:31.146Z,13.20
2023-02-22T19:19:58.348Z,14.73
2023-02-22T19:22:26.304Z,12.70
2023-02-22T19:24:54.341Z,14.35
2023-02-22T19:27:21.855Z,13.98
2023-02-22T19:29:49.489Z,15.30
2023-02-22T19:32:17.672Z,12.90
2023-02-22T19:34:44.854Z,12.85
2023-02-22T19:37:13.261Z,13.35
2023-02-22T19:39:42.507Z,13.05
2023-02-22T19:42:10.345Z,14.73
2023-02-22T19:44:37.581Z,15.38
2023-02-22T19:47:09.142Z,14.35
2023-02-22T19:49:37.716Z,13.55
2023-02-22T19:52:06.635Z,13.93
2023-02-22T19:54:34.065Z,12.63
2023-02-22T19:57:01.227Z,14.23
2023-02-22T19:59:28.610Z,14.43
2023-02-22T20:01:56.544Z,13.38
2023-02-22T20:04:24.476Z,12.55
2023-02-22T20:06:55.007Z,12.98
2023-02-22T20:09:36.385Z,12.57
2023-02-22T20:12:05.187Z,12.18
2023-02-22T20:14:32.175Z,13.65
2023-02-22T20:16:59.730Z,14.63
2023-02-22T20:19:27.474Z,12.60
2023-02-22T20:21:56.048Z,13.65
2023-02-22T20:24:24.166Z,12.40
2023-02-22T20:26:51.490Z,12.77
2023-02-22T20:29:19.865Z,11.82
2023-02-22T20:31:52.594Z,12.38
2023-02-22T20:34:19.607Z,10.77
2023-02-22T20:36:46.443Z,13.65
2023-02-22T20:39:14.420Z,13.48
2023-02-22T20:41:43.454Z,9.88
2023-02-22T20:44:13.664Z,13.60
2023-02-22T20:46:40.671Z,11.20
2023-02-22T20:49:09.055Z,10.95
2023-02-22T20:51:36.908Z,10.48
2023-02-22T20:54:04.036Z,10.73
2023-02-22T20:56:31.996Z,9.60
2023-02-22T20:59:01.087Z,12.57
2023-02-22T21:01:28.949Z,12.55
2023-02-22T21:04:00.925Z,11.13
2023-02-22T21:06:28.892Z,8.55
2023-02-22T21:08:58.153Z,11.05
2023-02-22T21:11:27.490Z,10.05
2023-02-22T21:13:54.731Z,9.00
2023-02-22T21:16:30.249Z,8.95
2023-02-22T21:18:59.763Z,17.20
2023-02-22T21:21:28.048Z,12.30
2023-02-22T21:23:57.210Z,12.27
2023-02-22T21:26:29.714Z,13.18
2023-02-22T21:29:05.515Z,9.50
2023-02-22T21:31:34.263Z,7.97
2023-02-22T21:34:02.137Z,8.55
2023-02-22T21:36:29.176Z,8.38
2023-02-22T21:38:58.661Z,9.07
2023-02-22T21:41:29.357Z,10.18
2023-02-22T21:43:58.260Z,10.90
2023-02-22T21:46:27.616Z,13.63
2023-02-22T21:48:54.612Z,8.57
2023-02-22T21:51:25.693Z,9.75
2023-02-22T21:53:54.652Z,9.57
2023-02-22T21:56:29.086Z,8.32
2023-02-22T22:01:35.040Z,10.18
2023-02-22T22:04:03.783Z,9.02
2023-02-22T22:06:32.488Z,12.10
2023-02-22T22:09:00.585Z,9.60
2023-02-22T22:11:27.587Z,9.07
2023-02-22T22:13:59.719Z,8.10
2023-02-22T22:16:29.795Z,9.15
2023-02-22T22:18:57.427Z,10.07
2023-02-22T22:21:25.257Z,10.40
2023-02-22T22:23:57.437Z,10.63
2023-02-22T22:26:25.861Z,9.60
2023-02-22T22:28:57.964Z,7.93
2023-02-22T22:31:28.911Z,9.82
2023-02-22T22:33:56.734Z,10.02
2023-02-22T22:36:26.546Z,8.25
2023-02-22T22:38:57.567Z,7.43
2023-02-22T22:41:28.120Z,14.52
2023-02-22T22:43:55.854Z,13.23
2023-02-22T22:46:23.664Z,10.45
2023-02-22T22:48:50.540Z,9.07
2023-02-22T22:51:22.183Z,10.10
2023-02-22T22:53:50.934Z,13.43
2023-02-22T22:56:21.052Z,10.40
2023-02-22T22:58:56.093Z,7.95
2023-02-22T23:01:32.585Z,10.85
2023-02-22T23:04:02.386Z,10.52
2023-02-22T23:06:33.129Z,11.30
2023-02-22T23:09:11.623Z,7.28
2023-02-22T23:11:44.956Z,10.05
2023-02-22T23:14:32.312Z,9.77
2023-02-22T23:17:03.702Z,9.30
2023-02-22T23:19:32.811Z,17.95
2023-02-22T23:21:59.827Z,9.82
2023-02-22T23:24:27.710Z,9.10
2023-02-22T23:27:00.216Z,10.65
2023-02-22T23:29:31.138Z,6.55
2023-02-22T23:31:58.869Z,8.63
2023-02-22T23:34:25.953Z,11.00
2023-02-22T23:36:55.644Z,7.75
2023-02-22T23:39:24.214Z,8.68
2023-02-22T23:41:56.450Z,12.43
2023-02-22T23:44:23.364Z,13.32
2023-02-22T23:46:55.530Z,7.88
2023-02-22T23:49:25.903Z,6.70
2023-02-22T23:51:53.153Z,12.77
2023-02-22T23:54:25.803Z,8.63
2023-02-22T23:57:02.464Z,8.95
2023-02-22T23:59:30.925Z,11.45
